Map

Track Data

SID SEASON NUMBER BASIN SUBBASIN NAME ISO_TIME NATURE LAT LON WMO_WIND WMO_PRES WMO_AGENCY TRACK_TYPE DIST2LAND LANDFALL IFLAG USA_AGENCY USA_ATCF_ID USA_LAT USA_LON USA_RECORD USA_STATUS USA_WIND USA_PRES USA_SSHS USA_R34_NE USA_R34_SE USA_R34_SW USA_R34_NW USA_R50_NE USA_R50_SE USA_R50_SW USA_R50_NW USA_R64_NE USA_R64_SE USA_R64_SW USA_R64_NW USA_POCI USA_ROCI USA_RMW USA_EYE TOKYO_LAT TOKYO_LON TOKYO_GRADE TOKYO_WIND TOKYO_PRES TOKYO_R50_DIR TOKYO_R50_LONG TOKYO_R50_SHORT TOKYO_R30_DIR TOKYO_R30_LONG TOKYO_R30_SHORT TOKYO_LAND CMA_LAT CMA_LON CMA_CAT CMA_WIND CMA_PRES HKO_LAT HKO_LON HKO_CAT HKO_WIND HKO_PRES NEWDELHI_LAT NEWDELHI_LON NEWDELHI_GRADE NEWDELHI_WIND NEWDELHI_PRES NEWDELHI_CI NEWDELHI_DP NEWDELHI_POCI REUNION_LAT REUNION_LON REUNION_TYPE REUNION_WIND REUNION_PRES REUNION_TNUM REUNION_CI REUNION_RMW REUNION_R34_NE REUNION_R34_SE REUNION_R34_SW REUNION_R34_NW REUNION_R50_NE REUNION_R50_SE REUNION_R50_SW REUNION_R50_NW REUNION_R64_NE REUNION_R64_SE REUNION_R64_SW REUNION_R64_NW BOM_LAT BOM_LON BOM_TYPE BOM_WIND BOM_PRES BOM_TNUM BOM_CI BOM_RMW BOM_R34_NE BOM_R34_SE BOM_R34_SW BOM_R34_NW BOM_R50_NE BOM_R50_SE BOM_R50_SW BOM_R50_NW BOM_R64_NE BOM_R64_SE BOM_R64_SW BOM_R64_NW BOM_ROCI BOM_POCI BOM_EYE BOM_POS_METHOD BOM_PRES_METHOD NADI_LAT NADI_LON NADI_CAT NADI_WIND NADI_PRES WELLINGTON_LAT WELLINGTON_LON WELLINGTON_WIND WELLINGTON_PRES DS824_LAT DS824_LON DS824_STAGE DS824_WIND DS824_PRES TD9636_LAT TD9636_LON TD9636_STAGE TD9636_WIND TD9636_PRES TD9635_LAT TD9635_LON TD9635_WIND TD9635_PRES TD9635_ROCI NEUMANN_LAT NEUMANN_LON NEUMANN_CLASS NEUMANN_WIND NEUMANN_PRES MLC_LAT MLC_LON MLC_CLASS MLC_WIND MLC_PRES USA_GUST BOM_GUST BOM_GUST_PER REUNION_GUST REUNION_GUST_PER USA_SEAHGT USA_SEARAD_NE USA_SEARAD_SE USA_SEARAD_SW USA_SEARAD_NW STORM_SPEED STORM_DIR
1988107S28175 1988 20 SP MM DOVI 1988-04-15 12:00:00 NR -27.8000 174.900 55 980 wellington spur-other 768 679 ________O_____ -1 -27.8000 174.900 55 980 20 163
1988107S28175 1988 20 SP MM DOVI 1988-04-15 15:00:00 NR -28.7699 175.236 spur-other 668 588 ________P_____ -1 -28.7402 175.235 55 980 21 163
1988107S28175 1988 20 SP MM DOVI 1988-04-15 18:00:00 NR -29.8000 175.600 55 980 wellington spur-other 578 480 ________O_____ -1 -29.8000 175.600 55 980 24 163
1988107S28175 1988 20 SP MM DOVI 1988-04-15 21:00:00 NR -31.0175 176.006 spur-other 480 401 ________P_____ -1 -31.0175 176.006 55 980 24 163
1988107S28175 1988 20 SP MM DOVI 1988-04-16 00:00:00 NR -32.1000 176.400 55 980 wellington spur-other 401 364 ________O_____ -1 -32.1000 176.400 55 980 18 161
1988107S28175 1988 20 SP MM DOVI 1988-04-16 03:00:00 NR -32.7471 176.702 spur-other 364 340 ________P_____ -1 -32.7471 176.702 52 982 12 155
1988107S28175 1988 20 SP MM DOVI 1988-04-16 06:00:00 NR -33.2000 177.000 50 985 wellington spur-other 340 325 ________O_____ -1 -33.2000 177.000 50 985 11 150
1988107S28175 1988 20 SP MM DOVI 1988-04-16 09:00:00 NR -33.7148 177.363 spur-other 333 326 ________P_____ -1 -33.7148 177.363 50 985 12 146
1988107S28175 1988 20 SP MM DOVI 1988-04-16 12:00:00 NR -34.2000 177.800 50 985 wellington spur-other 337 330 ________O_____ -1 -34.2000 177.800 50 985 12 141
1988107S28175 1988 20 SP MM DOVI 1988-04-16 15:00:00 NR -34.6723 178.313 spur-other 323 282 ________P_____ -1 -34.6723 178.313 50 985 13 135
1988107S28175 1988 20 SP MM DOVI 1988-04-16 18:00:00 NR -35.1000 178.900 50 985 wellington spur-other 283 260 ________O_____ -1 -35.1000 178.900 50 985 13 128
1988107S28175 1988 20 SP MM DOVI 1988-04-16 21:00:00 NR -35.4496 179.521 spur-other 267 250 ________P_____ -1 -35.4496 179.521 50 985 13 123
1988107S28175 1988 20 SP MM DOVI 1988-04-17 00:00:00 NR -35.8000 180.200 50 985 wellington spur-other 254 250 ________O_____ -1 -35.8000 -179.800 50 985 14 125
1988107S28175 1988 20 SP MM DOVI 1988-04-17 03:00:00 NR -36.2501 180.950 spur-other 256 256 ________P_____ -1 -36.2501 -179.050 50 985 15 127
1988107S28175 1988 20 SP MM DOVI 1988-04-17 06:00:00 NR -36.7000 181.700 50 985 wellington spur-other 295 295 ________O_____ -1 -36.7000 -178.300 50 985 13 126
1988107S28175 1988 20 SP MM DOVI 1988-04-17 09:00:00 NR -36.9939 182.244 spur-other 326 326 ________P_____ -1 -36.9939 -177.756 47 986 13 124
1988107S28175 1988 20 SP MM DOVI 1988-04-17 12:00:00 NR -37.4000 183.000 45 987 wellington spur-other 388 388 ________O_____ -1 -37.4000 -177.000 45 987 20 124
1988107S28175 1988 20 SP MM DOVI 1988-04-17 15:00:00 NR -38.1087 184.292 spur-other 500 500 ________P_____ -1 -38.1087 -175.708 42 988 28 124
1988107S28175 1988 20 SP MM DOVI 1988-04-17 18:00:00 NR -39.0000 186.000 40 990 wellington spur-other 659 659 ________O_____ -1 -39.0000 -174.000 40 990 34 122
1988107S28175 1988 20 SP MM DOVI 1988-04-17 21:00:00 NR -39.9299 188.004 spur-other 847 847 ________P_____ -1 -39.9299 -171.996 40 990 37 121
1988107S28175 1988 20 SP MM DOVI 1988-04-18 00:00:00 NR -40.9000 190.100 40 990 wellington spur-other 1040 1040 ________O_____ -1 -40.9000 -169.900 40 990 35 123
1988107S28175 1988 20 SP MM DOVI 1988-04-18 03:00:00 NR -41.8749 191.934 spur-other 1210 1210 ________P_____ -1 -41.8749 -168.066 37 992 33 125
1988107S28175 1988 20 SP MM DOVI 1988-04-18 06:00:00 NR -42.8000 193.700 35 995 wellington spur-other 1374 1374 ________O_____ -1 -42.8000 -166.300 35 995 31 123
1988107S28175 1988 20 SP MM DOVI 1988-04-18 09:00:00 NR -43.5972 195.519 spur-other 1534 1534 ________P_____ -1 -43.5972 -164.481 35 995 31 119
1988107S28175 1988 20 SP MM DOVI 1988-04-18 12:00:00 NR -44.3000 197.400 35 995 wellington spur-other 1699 ________O_____ -1 -44.3000 -162.600 35 995 30 118

Digital Typhoon Data and Search

About IBTrACS Database

This database is a web-friendly format of International Best Track Archive for Climate Stewardship (IBTrACS), a global best track data archive curated by NOAA dating back to 1842.

Updated: 2021-12-08